Terminal Aerodrome Forecast
Issued by NWS

Current Version | Previous Version | Graphics & Text | Print | Product List | Glossary On
Versions: 1 2 3 4 5 6 7 8 9 10 11 12 13 14 15 16 17 18 19 20 21 22 23
000
FTUS41 KILN 310856 AAA
TAFLUK
TAF AMD
KLUK 310856Z 3109/0106 00000KT 3SM BR SKC
      TEMPO 3110/3112 1/4SM FG VV002
     FM311400 23005KT P6SM FEW028 SCT150
     FM311800 24006KT P6SM VCSH BKN040
     FM010100 00000KT P6SM SCT250
      TEMPO 0104/0106 4SM BR SKC=

USA.gov is the U.S. government's official web portal to all federal, state and local government web resources and services.